sensor_id;sensor_type;location;lat;lon;timestamp;pressure;altitude;pressure_sealevel;temperature;humidity
64967;BME280;51710;38.732;-121.358;2023-12-07T00:01:10;101043.63;;;15.25;81.56
64967;BME280;51710;38.732;-121.358;2023-12-07T00:03:37;101045.00;;;15.21;82.17
64967;BME280;51710;38.732;-121.358;2023-12-07T00:06:03;101046.91;;;15.12;81.92
64967;BME280;51710;38.732;-121.358;2023-12-07T00:08:30;101042.25;;;15.06;82.15
64967;BME280;51710;38.732;-121.358;2023-12-07T00:10:56;101044.28;;;15.04;82.16
64967;BME280;51710;38.732;-121.358;2023-12-07T00:13:22;101059.91;;;15.01;82.08
64967;BME280;51710;38.732;-121.358;2023-12-07T00:15:49;101052.38;;;14.96;82.47
64967;BME280;51710;38.732;-121.358;2023-12-07T00:18:15;101048.22;;;14.94;82.42
64967;BME280;51710;38.732;-121.358;2023-12-07T00:20:41;101055.78;;;14.90;82.68
64967;BME280;51710;38.732;-121.358;2023-12-07T00:23:08;101065.84;;;14.88;82.91
64967;BME280;51710;38.732;-121.358;2023-12-07T00:25:34;101076.09;;;14.85;83.22
64967;BME280;51710;38.732;-121.358;2023-12-07T00:28:00;101077.63;;;14.79;83.52
64967;BME280;51710;38.732;-121.358;2023-12-07T00:30:26;101074.63;;;14.74;83.91
64967;BME280;51710;38.732;-121.358;2023-12-07T00:32:53;101073.28;;;14.70;84.45
64967;BME280;51710;38.732;-121.358;2023-12-07T00:35:19;101080.66;;;14.68;84.59
64967;BME280;51710;38.732;-121.358;2023-12-07T00:37:48;101070.31;;;14.65;84.70
64967;BME280;51710;38.732;-121.358;2023-12-07T00:40:14;101086.09;;;14.60;84.89
64967;BME280;51710;38.732;-121.358;2023-12-07T00:42:41;101079.38;;;14.56;85.05
64967;BME280;51710;38.732;-121.358;2023-12-07T00:45:09;101077.06;;;14.53;85.26
64967;BME280;51710;38.732;-121.358;2023-12-07T00:47:35;101086.13;;;14.52;85.64
64967;BME280;51710;38.732;-121.358;2023-12-07T00:50:05;101103.72;;;14.46;85.81
64967;BME280;51710;38.732;-121.358;2023-12-07T00:52:32;101096.38;;;14.40;86.06
64967;BME280;51710;38.732;-121.358;2023-12-07T00:54:58;101109.09;;;14.38;86.35
64967;BME280;51710;38.732;-121.358;2023-12-07T00:57:24;101114.63;;;14.37;86.58
64967;BME280;51710;38.732;-121.358;2023-12-07T00:59:51;101120.53;;;14.32;86.50
64967;BME280;51710;38.732;-121.358;2023-12-07T01:02:17;101131.72;;;14.28;86.92
64967;BME280;51710;38.732;-121.358;2023-12-07T01:04:43;101125.56;;;14.27;87.51
64967;BME280;51710;38.732;-121.358;2023-12-07T01:07:10;101111.16;;;14.28;87.60
64967;BME280;51710;38.732;-121.358;2023-12-07T01:09:37;101106.28;;;14.32;87.59
64967;BME280;51710;38.732;-121.358;2023-12-07T01:12:03;101093.91;;;14.31;87.60
64967;BME280;51710;38.732;-121.358;2023-12-07T01:14:29;101087.69;;;14.30;87.72
64967;BME280;51710;38.732;-121.358;2023-12-07T01:16:56;101080.19;;;14.26;87.55
64967;BME280;51710;38.732;-121.358;2023-12-07T01:19:22;101092.88;;;14.24;87.87
64967;BME280;51710;38.732;-121.358;2023-12-07T01:21:50;101071.31;;;14.17;88.51
64967;BME280;51710;38.732;-121.358;2023-12-07T01:24:17;101072.47;;;14.15;88.57
64967;BME280;51710;38.732;-121.358;2023-12-07T01:26:43;101068.28;;;14.12;89.18
64967;BME280;51710;38.732;-121.358;2023-12-07T01:29:10;101072.00;;;14.11;89.15
64967;BME280;51710;38.732;-121.358;2023-12-07T01:31:36;101069.66;;;14.08;89.23
64967;BME280;51710;38.732;-121.358;2023-12-07T01:34:02;101069.84;;;14.07;89.70
64967;BME280;51710;38.732;-121.358;2023-12-07T01:36:28;101086.72;;;14.07;90.12
64967;BME280;51710;38.732;-121.358;2023-12-07T01:38:55;101096.75;;;14.05;90.03
64967;BME280;51710;38.732;-121.358;2023-12-07T01:41:21;101101.13;;;14.06;90.21
64967;BME280;51710;38.732;-121.358;2023-12-07T01:43:48;101110.81;;;14.07;90.39
64967;BME280;51710;38.732;-121.358;2023-12-07T01:46:15;101109.00;;;14.08;90.61
64967;BME280;51710;38.732;-121.358;2023-12-07T01:48:43;101126.72;;;14.09;90.62
64967;BME280;51710;38.732;-121.358;2023-12-07T01:51:10;101125.72;;;14.10;90.81
64967;BME280;51710;38.732;-121.358;2023-12-07T01:53:39;101113.50;;;14.07;90.98
64967;BME280;51710;38.732;-121.358;2023-12-07T01:56:06;101127.06;;;14.06;90.94
64967;BME280;51710;38.732;-121.358;2023-12-07T01:58:34;101133.44;;;14.05;91.27
64967;BME280;51710;38.732;-121.358;2023-12-07T02:01:02;101128.09;;;14.05;91.49
64967;BME280;51710;38.732;-121.358;2023-12-07T02:03:31;101138.13;;;14.03;91.73
64967;BME280;51710;38.732;-121.358;2023-12-07T02:05:58;101137.28;;;14.02;91.99
64967;BME280;51710;38.732;-121.358;2023-12-07T02:08:24;101136.44;;;14.02;92.03
64967;BME280;51710;38.732;-121.358;2023-12-07T02:10:51;101143.47;;;14.03;92.02
64967;BME280;51710;38.732;-121.358;2023-12-07T02:13:20;101140.31;;;13.99;91.82
64967;BME280;51710;38.732;-121.358;2023-12-07T02:15:47;101142.97;;;13.99;91.87
64967;BME280;51710;38.732;-121.358;2023-12-07T02:21:27;101153.69;;;13.99;91.81
64967;BME280;51710;38.732;-121.358;2023-12-07T02:23:58;101156.53;;;13.98;91.45
64967;BME280;51710;38.732;-121.358;2023-12-07T02:26:32;101158.03;;;13.92;91.71
64967;BME280;51710;38.732;-121.358;2023-12-07T02:28:58;101164.56;;;13.90;91.67
64967;BME280;51710;38.732;-121.358;2023-12-07T02:31:24;101165.56;;;13.89;91.57
64967;BME280;51710;38.732;-121.358;2023-12-07T02:33:50;101178.63;;;13.84;91.55
64967;BME280;51710;38.732;-121.358;2023-12-07T02:36:20;101177.97;;;13.82;91.75
64967;BME280;51710;38.732;-121.358;2023-12-07T02:38:50;101188.00;;;13.80;91.73
64967;BME280;51710;38.732;-121.358;2023-12-07T02:41:18;101194.66;;;13.76;91.68
64967;BME280;51710;38.732;-121.358;2023-12-07T02:43:46;101200.38;;;13.73;91.57
64967;BME280;51710;38.732;-121.358;2023-12-07T02:46:13;101206.22;;;13.68;91.39
64967;BME280;51710;38.732;-121.358;2023-12-07T02:48:39;101206.41;;;13.67;91.66
64967;BME280;51710;38.732;-121.358;2023-12-07T02:51:05;101208.41;;;13.65;91.60
64967;BME280;51710;38.732;-121.358;2023-12-07T02:53:33;101223.09;;;13.61;91.61
64967;BME280;51710;38.732;-121.358;2023-12-07T02:56:00;101224.41;;;13.56;91.63
64967;BME280;51710;38.732;-121.358;2023-12-07T02:58:26;101239.81;;;13.54;91.52
64967;BME280;51710;38.732;-121.358;2023-12-07T03:00:53;101237.47;;;13.51;91.70
64967;BME280;51710;38.732;-121.358;2023-12-07T03:03:19;101241.31;;;13.49;91.82
64967;BME280;51710;38.732;-121.358;2023-12-07T03:05:46;101253.16;;;13.46;91.70
64967;BME280;51710;38.732;-121.358;2023-12-07T03:08:12;101267.56;;;13.45;92.08
64967;BME280;51710;38.732;-121.358;2023-12-07T03:10:38;101260.50;;;13.44;91.88
64967;BME280;51710;38.732;-121.358;2023-12-07T03:13:05;101261.69;;;13.42;91.85
64967;BME280;51710;38.732;-121.358;2023-12-07T03:15:31;101259.19;;;13.40;91.69
64967;BME280;51710;38.732;-121.358;2023-12-07T03:17:58;101258.50;;;13.38;91.78
64967;BME280;51710;38.732;-121.358;2023-12-07T03:20:24;101262.50;;;13.34;91.87
64967;BME280;51710;38.732;-121.358;2023-12-07T03:22:51;101269.84;;;13.32;92.07
64967;BME280;51710;38.732;-121.358;2023-12-07T03:25:17;101266.47;;;13.30;91.95
64967;BME280;51710;38.732;-121.358;2023-12-07T03:27:44;101281.03;;;13.28;91.95
64967;BME280;51710;38.732;-121.358;2023-12-07T03:30:10;101283.03;;;13.26;92.02
64967;BME280;51710;38.732;-121.358;2023-12-07T03:32:37;101289.53;;;13.23;91.87
64967;BME280;51710;38.732;-121.358;2023-12-07T03:35:04;101287.00;;;13.22;92.12
64967;BME280;51710;38.732;-121.358;2023-12-07T03:37:30;101295.19;;;13.20;92.07
64967;BME280;51710;38.732;-121.358;2023-12-07T03:39:56;101303.53;;;13.17;92.17
64967;BME280;51710;38.732;-121.358;2023-12-07T03:42:23;101309.22;;;13.14;92.13
64967;BME280;51710;38.732;-121.358;2023-12-07T03:44:49;101313.22;;;13.10;92.43
64967;BME280;51710;38.732;-121.358;2023-12-07T03:47:16;101314.19;;;13.09;92.67
64967;BME280;51710;38.732;-121.358;2023-12-07T03:49:44;101304.50;;;13.08;92.69
64967;BME280;51710;38.732;-121.358;2023-12-07T03:52:10;101316.22;;;13.07;92.66
64967;BME280;51710;38.732;-121.358;2023-12-07T03:54:36;101311.84;;;13.06;92.85
64967;BME280;51710;38.732;-121.358;2023-12-07T03:57:03;101317.34;;;13.05;92.78
64967;BME280;51710;38.732;-121.358;2023-12-07T03:59:30;101319.34;;;13.03;92.50
64967;BME280;51710;38.732;-121.358;2023-12-07T04:01:56;101324.13;;;12.99;93.09
64967;BME280;51710;38.732;-121.358;2023-12-07T04:04:23;101327.81;;;12.98;93.08
64967;BME280;51710;38.732;-121.358;2023-12-07T04:06:49;101333.16;;;12.98;93.00
64967;BME280;51710;38.732;-121.358;2023-12-07T04:09:16;101333.00;;;13.00;93.24
64967;BME280;51710;38.732;-121.358;2023-12-07T04:11:42;101327.81;;;12.98;93.14
64967;BME280;51710;38.732;-121.358;2023-12-07T04:14:08;101338.81;;;12.95;93.29
64967;BME280;51710;38.732;-121.358;2023-12-07T04:16:34;101336.28;;;12.94;93.30
64967;BME280;51710;38.732;-121.358;2023-12-07T04:19:01;101341.97;;;12.91;93.19
64967;BME280;51710;38.732;-121.358;2023-12-07T04:21:28;101334.09;;;12.89;93.31
64967;BME280;51710;38.732;-121.358;2023-12-07T04:23:54;101340.44;;;12.88;93.13
64967;BME280;51710;38.732;-121.358;2023-12-07T04:26:20;101341.44;;;12.87;93.29
64967;BME280;51710;38.732;-121.358;2023-12-07T04:28:47;101340.75;;;12.85;93.56
64967;BME280;51710;38.732;-121.358;2023-12-07T04:31:13;101350.47;;;12.86;93.48
64967;BME280;51710;38.732;-121.358;2023-12-07T04:33:40;101351.16;;;12.88;93.51
64967;BME280;51710;38.732;-121.358;2023-12-07T04:36:07;101362.81;;;12.87;93.37
64967;BME280;51710;38.732;-121.358;2023-12-07T04:38:33;101367.47;;;12.85;93.50
64967;BME280;51710;38.732;-121.358;2023-12-07T04:40:59;101374.69;;;12.85;93.52
64967;BME280;51710;38.732;-121.358;2023-12-07T04:43:26;101375.50;;;12.85;93.59
64967;BME280;51710;38.732;-121.358;2023-12-07T04:45:52;101391.69;;;12.84;93.50
64967;BME280;51710;38.732;-121.358;2023-12-07T04:48:18;101391.84;;;12.82;93.30
64967;BME280;51710;38.732;-121.358;2023-12-07T04:50:44;101390.47;;;12.78;93.49
64967;BME280;51710;38.732;-121.358;2023-12-07T04:53:11;101390.63;;;12.77;93.42
64967;BME280;51710;38.732;-121.358;2023-12-07T04:55:37;101390.78;;;12.75;93.43
64967;BME280;51710;38.732;-121.358;2023-12-07T04:58:03;101396.13;;;12.75;93.61
64967;BME280;51710;38.732;-121.358;2023-12-07T05:00:29;101407.13;;;12.72;93.38
64967;BME280;51710;38.732;-121.358;2023-12-07T05:02:56;101412.50;;;12.72;93.78
64967;BME280;51710;38.732;-121.358;2023-12-07T05:05:22;101421.47;;;12.71;93.52
64967;BME280;51710;38.732;-121.358;2023-12-07T05:07:50;101420.94;;;12.68;93.58
64967;BME280;51710;38.732;-121.358;2023-12-07T05:10:16;101435.63;;;12.64;93.28
64967;BME280;51710;38.732;-121.358;2023-12-07T05:12:42;101444.09;;;12.59;93.24
64967;BME280;51710;38.732;-121.358;2023-12-07T05:15:09;101452.25;;;12.58;93.49
64967;BME280;51710;38.732;-121.358;2023-12-07T05:17:35;101456.75;;;12.57;93.50
64967;BME280;51710;38.732;-121.358;2023-12-07T05:20:02;101452.41;;;12.56;93.63
64967;BME280;51710;38.732;-121.358;2023-12-07T05:22:28;101457.91;;;12.55;93.78
64967;BME280;51710;38.732;-121.358;2023-12-07T05:24:54;101469.44;;;12.55;93.50
64967;BME280;51710;38.732;-121.358;2023-12-07T05:27:21;101466.91;;;12.54;93.45
64967;BME280;51710;38.732;-121.358;2023-12-07T05:29:47;101465.38;;;12.51;93.34
64967;BME280;51710;38.732;-121.358;2023-12-07T05:32:14;101466.34;;;12.50;93.61
64967;BME280;51710;38.732;-121.358;2023-12-07T05:34:40;101471.69;;;12.50;93.42
64967;BME280;51710;38.732;-121.358;2023-12-07T05:37:07;101470.19;;;12.48;93.75
64967;BME280;51710;38.732;-121.358;2023-12-07T05:39:33;101465.00;;;12.46;93.60
64967;BME280;51710;38.732;-121.358;2023-12-07T05:42:00;101472.31;;;12.44;93.75
64967;BME280;51710;38.732;-121.358;2023-12-07T05:44:26;101479.66;;;12.42;93.76
64967;BME280;51710;38.732;-121.358;2023-12-07T05:46:52;101473.59;;;12.40;93.63
64967;BME280;51710;38.732;-121.358;2023-12-07T05:49:19;101471.94;;;12.39;93.75
64967;BME280;51710;38.732;-121.358;2023-12-07T05:51:48;101469.56;;;12.36;93.95
64967;BME280;51710;38.732;-121.358;2023-12-07T05:54:15;101463.69;;;12.32;93.62
64967;BME280;51710;38.732;-121.358;2023-12-07T05:56:42;101480.84;;;12.30;93.56
64967;BME280;51710;38.732;-121.358;2023-12-07T05:59:08;101481.16;;;12.27;93.80
64967;BME280;51710;38.732;-121.358;2023-12-07T06:01:35;101498.16;;;12.26;93.52
64967;BME280;51710;38.732;-121.358;2023-12-07T06:04:01;101502.78;;;12.24;93.76
64967;BME280;51710;38.732;-121.358;2023-12-07T06:06:27;101510.13;;;12.22;93.76
64967;BME280;51710;38.732;-121.358;2023-12-07T06:08:54;101519.13;;;12.21;93.89
64967;BME280;51710;38.732;-121.358;2023-12-07T06:11:20;101524.47;;;12.21;93.76
64967;BME280;51710;38.732;-121.358;2023-12-07T06:13:46;101518.28;;;12.20;93.80
64967;BME280;51710;38.732;-121.358;2023-12-07T06:16:13;101527.13;;;12.21;93.84
64967;BME280;51710;38.732;-121.358;2023-12-07T06:18:40;101529.81;;;12.21;93.79
64967;BME280;51710;38.732;-121.358;2023-12-07T06:21:06;101528.13;;;12.20;93.87
64967;BME280;51710;38.732;-121.358;2023-12-07T06:23:32;101525.63;;;12.18;93.56
64967;BME280;51710;38.732;-121.358;2023-12-07T06:25:59;101531.22;;;12.15;93.32
64967;BME280;51710;38.732;-121.358;2023-12-07T06:28:26;101531.38;;;12.14;93.75
64967;BME280;51710;38.732;-121.358;2023-12-07T06:30:55;101534.91;;;12.14;93.47
64967;BME280;51710;38.732;-121.358;2023-12-07T06:33:22;101534.03;;;12.14;93.68
64967;BME280;51710;38.732;-121.358;2023-12-07T06:35:49;101536.72;;;12.14;93.54
64967;BME280;51710;38.732;-121.358;2023-12-07T06:38:15;101526.19;;;12.12;93.92
64967;BME280;51710;38.732;-121.358;2023-12-07T06:40:41;101547.69;;;12.11;93.99
64967;BME280;51710;38.732;-121.358;2023-12-07T06:43:09;101544.34;;;12.09;93.39
64967;BME280;51710;38.732;-121.358;2023-12-07T06:45:35;101539.28;;;12.06;93.83
64967;BME280;51710;38.732;-121.358;2023-12-07T06:48:01;101542.94;;;12.05;93.88
64967;BME280;51710;38.732;-121.358;2023-12-07T06:50:28;101543.94;;;12.04;93.85
64967;BME280;51710;38.732;-121.358;2023-12-07T06:52:54;101558.28;;;12.03;94.00
64967;BME280;51710;38.732;-121.358;2023-12-07T06:55:21;101556.59;;;12.02;93.75
64967;BME280;51710;38.732;-121.358;2023-12-07T06:57:48;101567.25;;;12.02;93.70
64967;BME280;51710;38.732;-121.358;2023-12-07T07:00:15;101565.28;;;12.04;93.49
64967;BME280;51710;38.732;-121.358;2023-12-07T07:02:41;101563.47;;;12.04;93.74
64967;BME280;51710;38.732;-121.358;2023-12-07T07:05:07;101570.63;;;12.04;93.22
64967;BME280;51710;38.732;-121.358;2023-12-07T07:07:37;101575.28;;;12.02;93.41
64967;BME280;51710;38.732;-121.358;2023-12-07T07:10:04;101582.72;;;11.98;93.13
64967;BME280;51710;38.732;-121.358;2023-12-07T07:12:31;101582.72;;;11.98;93.51
64967;BME280;51710;38.732;-121.358;2023-12-07T07:14:57;101582.16;;;11.95;93.22
64967;BME280;51710;38.732;-121.358;2023-12-07T07:17:23;101593.16;;;11.92;92.81
64967;BME280;51710;38.732;-121.358;2023-12-07T07:19:50;101588.09;;;11.89;92.91
64967;BME280;51710;38.732;-121.358;2023-12-07T07:22:16;101593.72;;;11.86;92.92
64967;BME280;51710;38.732;-121.358;2023-12-07T07:24:42;101593.72;;;11.86;93.23
64967;BME280;51710;38.732;-121.358;2023-12-07T07:27:09;101599.19;;;11.84;93.48
64967;BME280;51710;38.732;-121.358;2023-12-07T07:29:35;101597.66;;;11.82;93.46
64967;BME280;51710;38.732;-121.358;2023-12-07T07:32:01;101606.66;;;11.81;93.35
64967;BME280;51710;38.732;-121.358;2023-12-07T07:34:27;101605.28;;;11.77;93.08
64967;BME280;51710;38.732;-121.358;2023-12-07T07:36:54;101611.72;;;11.74;93.45
64967;BME280;51710;38.732;-121.358;2023-12-07T07:39:20;101615.38;;;11.73;93.06
64967;BME280;51710;38.732;-121.358;2023-12-07T07:41:46;101629.84;;;11.71;93.47
64967;BME280;51710;38.732;-121.358;2023-12-07T07:44:13;101624.94;;;11.66;93.36
64967;BME280;51710;38.732;-121.358;2023-12-07T07:46:40;101631.34;;;11.64;93.48
64967;BME280;51710;38.732;-121.358;2023-12-07T07:49:07;101633.31;;;11.62;93.58
64967;BME280;51710;38.732;-121.358;2023-12-07T07:51:33;101625.31;;;11.62;93.52
64967;BME280;51710;38.732;-121.358;2023-12-07T07:54:00;101625.63;;;11.59;93.31
64967;BME280;51710;38.732;-121.358;2023-12-07T07:56:26;101627.56;;;11.57;93.38
64967;BME280;51710;38.732;-121.358;2023-12-07T07:58:52;101634.88;;;11.55;93.23
64967;BME280;51710;38.732;-121.358;2023-12-07T08:01:19;101637.53;;;11.55;93.19
64967;BME280;51710;38.732;-121.358;2023-12-07T08:03:45;101650.88;;;11.55;93.22
64967;BME280;51710;38.732;-121.358;2023-12-07T08:06:12;101664.22;;;11.55;93.42
64967;BME280;51710;38.732;-121.358;2023-12-07T08:08:38;101663.34;;;11.54;93.48
64967;BME280;51710;38.732;-121.358;2023-12-07T08:11:04;101667.88;;;11.54;93.66
64967;BME280;51710;38.732;-121.358;2023-12-07T08:13:31;101671.50;;;11.53;93.53
64967;BME280;51710;38.732;-121.358;2023-12-07T08:15:57;101672.34;;;11.53;93.31
64967;BME280;51710;38.732;-121.358;2023-12-07T08:18:23;101676.13;;;11.51;93.28
64967;BME280;51710;38.732;-121.358;2023-12-07T08:20:50;101669.84;;;11.52;93.39
64967;BME280;51710;38.732;-121.358;2023-12-07T08:23:16;101661.28;;;11.48;93.35
64967;BME280;51710;38.732;-121.358;2023-12-07T08:25:42;101658.75;;;11.47;93.07
64967;BME280;51710;38.732;-121.358;2023-12-07T08:28:09;101655.53;;;11.43;92.97
64967;BME280;51710;38.732;-121.358;2023-12-07T08:30:36;101660.28;;;11.40;93.03
64967;BME280;51710;38.732;-121.358;2023-12-07T08:33:03;101664.06;;;11.37;93.01
64967;BME280;51710;38.732;-121.358;2023-12-07T08:35:29;101664.50;;;11.32;92.82
64967;BME280;51710;38.732;-121.358;2023-12-07T08:37:55;101667.31;;;11.31;92.79
64967;BME280;51710;38.732;-121.358;2023-12-07T08:40:22;101680.06;;;11.27;93.03
64967;BME280;51710;38.732;-121.358;2023-12-07T08:42:48;101677.66;;;11.24;92.77
64967;BME280;51710;38.732;-121.358;2023-12-07T08:45:14;101682.31;;;11.22;93.26
64967;BME280;51710;38.732;-121.358;2023-12-07T08:47:41;101682.69;;;11.18;92.46
64967;BME280;51710;38.732;-121.358;2023-12-07T08:50:08;101676.81;;;11.14;93.07
64967;BME280;51710;38.732;-121.358;2023-12-07T08:52:35;101682.13;;;11.14;93.20
64967;BME280;51710;38.732;-121.358;2023-12-07T08:55:01;101680.47;;;11.13;93.29
64967;BME280;51710;38.732;-121.358;2023-12-07T08:57:28;101682.41;;;11.11;92.99
64967;BME280;51710;38.732;-121.358;2023-12-07T08:59:54;101694.19;;;11.09;92.99
64967;BME280;51710;38.732;-121.358;2023-12-07T09:02:20;101684.66;;;11.06;92.81
64967;BME280;51710;38.732;-121.358;2023-12-07T09:04:47;101699.94;;;11.04;92.81
64967;BME280;51710;38.732;-121.358;2023-12-07T09:07:14;101697.25;;;11.04;92.91
64967;BME280;51710;38.732;-121.358;2023-12-07T09:09:42;101700.94;;;11.03;93.04
64967;BME280;51710;38.732;-121.358;2023-12-07T09:12:13;101705.97;;;11.06;93.25
64967;BME280;51710;38.732;-121.358;2023-12-07T09:14:40;101712.16;;;11.07;93.38
64967;BME280;51710;38.732;-121.358;2023-12-07T09:17:06;101718.31;;;11.07;93.71
64967;BME280;51710;38.732;-121.358;2023-12-07T09:19:33;101728.00;;;11.08;93.06
64967;BME280;51710;38.732;-121.358;2023-12-07T09:21:59;101728.97;;;11.07;92.83
64967;BME280;51710;38.732;-121.358;2023-12-07T09:24:26;101735.16;;;11.08;93.20
64967;BME280;51710;38.732;-121.358;2023-12-07T09:26:52;101743.28;;;11.06;93.09
64967;BME280;51710;38.732;-121.358;2023-12-07T09:29:18;101747.63;;;11.07;93.09
64967;BME280;51710;38.732;-121.358;2023-12-07T09:31:44;101749.47;;;11.07;93.30
64967;BME280;51710;38.732;-121.358;2023-12-07T09:34:11;101750.28;;;11.07;92.89
64967;BME280;51710;38.732;-121.358;2023-12-07T09:36:44;101739.63;;;11.07;92.83
64967;BME280;51710;38.732;-121.358;2023-12-07T09:39:10;101746.91;;;11.05;93.10
64967;BME280;51710;38.732;-121.358;2023-12-07T09:41:39;101749.00;;;11.02;92.95
64967;BME280;51710;38.732;-121.358;2023-12-07T09:44:06;101747.47;;;10.99;92.65
64967;BME280;51710;38.732;-121.358;2023-12-07T09:46:32;101746.03;;;10.95;92.45
64967;BME280;51710;38.732;-121.358;2023-12-07T09:48:58;101748.00;;;10.93;92.77
64967;BME280;51710;38.732;-121.358;2023-12-07T09:51:26;101754.44;;;10.91;92.57
64967;BME280;51710;38.732;-121.358;2023-12-07T09:53:53;101751.06;;;10.89;92.88
64967;BME280;51710;38.732;-121.358;2023-12-07T09:56:20;101744.88;;;10.88;92.77
64967;BME280;51710;38.732;-121.358;2023-12-07T09:58:46;101753.88;;;10.87;92.59
64967;BME280;51710;38.732;-121.358;2023-12-07T10:01:12;101760.16;;;10.86;92.87
64967;BME280;51710;38.732;-121.358;2023-12-07T10:03:40;101773.75;;;10.83;92.71
64967;BME280;51710;38.732;-121.358;2023-12-07T10:06:07;101770.38;;;10.81;92.84
64967;BME280;51710;38.732;-121.358;2023-12-07T10:08:34;101770.38;;;10.81;92.99
64967;BME280;51710;38.732;-121.358;2023-12-07T10:11:10;101777.66;;;10.79;92.83
64967;BME280;51710;38.732;-121.358;2023-12-07T10:13:39;101782.31;;;10.77;92.42
64967;BME280;51710;38.732;-121.358;2023-12-07T10:16:08;101786.91;;;10.75;92.76
64967;BME280;51710;38.732;-121.358;2023-12-07T10:18:35;101788.88;;;10.73;92.39
64967;BME280;51710;38.732;-121.358;2023-12-07T10:21:02;101790.66;;;10.73;92.67
64967;BME280;51710;38.732;-121.358;2023-12-07T10:23:29;101784.63;;;10.71;92.54
64967;BME280;51710;38.732;-121.358;2023-12-07T10:25:58;101794.72;;;10.67;92.33
64967;BME280;51710;38.732;-121.358;2023-12-07T10:28:26;101789.66;;;10.64;92.01
64967;BME280;51710;38.732;-121.358;2023-12-07T10:30:52;101780.94;;;10.62;92.04
64967;BME280;51710;38.732;-121.358;2023-12-07T10:33:19;101791.59;;;10.62;92.24
64967;BME280;51710;38.732;-121.358;2023-12-07T10:35:47;101789.19;;;10.59;92.55
64967;BME280;51710;38.732;-121.358;2023-12-07T10:38:14;101802.53;;;10.59;92.43
64967;BME280;51710;38.732;-121.358;2023-12-07T10:40:40;101802.66;;;10.58;92.35
64967;BME280;51710;38.732;-121.358;2023-12-07T10:43:08;101799.13;;;10.57;92.28
64967;BME280;51710;38.732;-121.358;2023-12-07T10:45:35;101790.44;;;10.55;92.40
64967;BME280;51710;38.732;-121.358;2023-12-07T10:48:07;101790.44;;;10.55;92.38
64967;BME280;51710;38.732;-121.358;2023-12-07T10:50:36;101804.72;;;10.54;92.99
64967;BME280;51710;38.732;-121.358;2023-12-07T10:53:15;101792.97;;;10.57;92.67
64967;BME280;51710;38.732;-121.358;2023-12-07T10:55:53;101797.19;;;10.59;92.78
64967;BME280;51710;38.732;-121.358;2023-12-07T10:58:22;101795.25;;;10.61;92.79
64967;BME280;51710;38.732;-121.358;2023-12-07T11:00:52;101795.13;;;10.63;92.55
64967;BME280;51710;38.732;-121.358;2023-12-07T11:03:19;101798.63;;;10.63;92.92
64967;BME280;51710;38.732;-121.358;2023-12-07T11:05:50;101792.44;;;10.63;92.98
64967;BME280;51710;38.732;-121.358;2023-12-07T11:08:31;101798.50;;;10.65;93.18
64967;BME280;51710;38.732;-121.358;2023-12-07T11:11:20;101805.34;;;10.67;93.05
64967;BME280;51710;38.732;-121.358;2023-12-07T11:14:05;101799.22;;;10.67;93.02
64967;BME280;51710;38.732;-121.358;2023-12-07T11:16:36;101811.69;;;10.66;93.24
64967;BME280;51710;38.732;-121.358;2023-12-07T11:19:05;101808.28;;;10.64;92.58
64967;BME280;51710;38.732;-121.358;2023-12-07T11:21:49;101821.63;;;10.64;92.82
64967;BME280;51710;38.732;-121.358;2023-12-07T11:24:16;101819.94;;;10.63;92.99
64967;BME280;51710;38.732;-121.358;2023-12-07T11:26:43;101825.38;;;10.62;92.58
64967;BME280;51710;38.732;-121.358;2023-12-07T11:29:10;101808.56;;;10.61;92.96
64967;BME280;51710;38.732;-121.358;2023-12-07T11:31:37;101822.00;;;10.60;92.51
64967;BME280;51710;38.732;-121.358;2023-12-07T11:34:06;101816.81;;;10.58;92.43
64967;BME280;51710;38.732;-121.358;2023-12-07T11:36:39;101820.44;;;10.57;92.92
64967;BME280;51710;38.732;-121.358;2023-12-07T11:41:43;101820.72;;;10.54;92.78
64967;BME280;51710;38.732;-121.358;2023-12-07T11:44:11;101815.38;;;10.54;92.69
64967;BME280;51710;38.732;-121.358;2023-12-07T11:46:38;101820.97;;;10.51;92.58
64967;BME280;51710;38.732;-121.358;2023-12-07T11:49:04;101822.94;;;10.49;91.57
64967;BME280;51710;38.732;-121.358;2023-12-07T11:51:34;101810.97;;;10.44;92.10
64967;BME280;51710;38.732;-121.358;2023-12-07T11:54:00;101816.44;;;10.42;91.97
64967;BME280;51710;38.732;-121.358;2023-12-07T11:56:27;101823.69;;;10.40;91.84
64967;BME280;51710;38.732;-121.358;2023-12-07T11:58:53;101820.31;;;10.38;92.37
64967;BME280;51710;38.732;-121.358;2023-12-07T12:01:24;101820.56;;;10.35;91.99
64967;BME280;51710;38.732;-121.358;2023-12-07T12:03:53;101821.78;;;10.31;91.49
64967;BME280;51710;38.732;-121.358;2023-12-07T12:06:20;101820.00;;;10.32;91.92
64967;BME280;51710;38.732;-121.358;2023-12-07T12:08:46;101807.75;;;10.29;91.59
64967;BME280;51710;38.732;-121.358;2023-12-07T12:11:12;101807.91;;;10.28;92.36
64967;BME280;51710;38.732;-121.358;2023-12-07T12:13:39;101806.22;;;10.27;92.33
64967;BME280;51710;38.732;-121.358;2023-12-07T12:16:06;101818.53;;;10.28;92.07
64967;BME280;51710;38.732;-121.358;2023-12-07T12:18:33;101822.19;;;10.27;92.00
64967;BME280;51710;38.732;-121.358;2023-12-07T12:20:59;101821.59;;;10.23;92.36
64967;BME280;51710;38.732;-121.358;2023-12-07T12:23:25;101816.50;;;10.20;92.25
64967;BME280;51710;38.732;-121.358;2023-12-07T12:25:52;101811.19;;;10.20;92.04